createdAt,value
2023-01-13T00:01:31.814Z,6.30
2023-01-13T00:04:01.224Z,6.30
2023-01-13T00:06:29.796Z,6.10
2023-01-13T00:08:58.173Z,6.20
2023-01-13T00:11:26.667Z,6.40
2023-01-13T00:13:55.274Z,6.40
2023-01-13T00:16:23.765Z,6.30
2023-01-13T00:18:52.080Z,6.30
2023-01-13T00:21:25.355Z,6.30
2023-01-13T00:23:55.314Z,6.10
2023-01-13T00:26:26.250Z,6.00
2023-01-13T00:28:59.139Z,5.90
2023-01-13T00:31:28.804Z,5.90
2023-01-13T00:33:58.333Z,5.90
2023-01-13T00:36:27.123Z,5.90
2023-01-13T00:38:55.577Z,5.70
2023-01-13T00:41:25.607Z,5.80
2023-01-13T00:43:53.887Z,5.90
2023-01-13T00:46:23.185Z,5.90
2023-01-13T00:48:51.960Z,5.90
2023-01-13T00:51:21.953Z,6.00
2023-01-13T00:53:52.425Z,5.90
2023-01-13T00:56:38.451Z,5.90
2023-01-13T00:59:10.904Z,6.00
2023-01-13T01:01:39.652Z,6.20
2023-01-13T01:04:08.373Z,6.30
2023-01-13T01:06:36.644Z,6.20
2023-01-13T01:09:05.746Z,6.20
2023-01-13T01:11:34.117Z,6.20
2023-01-13T01:14:04.214Z,6.10
2023-01-13T01:16:33.667Z,6.10
2023-01-13T01:19:02.779Z,6.20
2023-01-13T01:21:30.942Z,6.20
2023-01-13T01:24:04.188Z,6.10
2023-01-13T01:26:33.288Z,6.10
2023-01-13T01:29:02.585Z,6.00
2023-01-13T01:31:33.407Z,6.10
2023-01-13T01:34:02.117Z,6.20
2023-01-13T01:36:30.615Z,6.20
2023-01-13T01:38:59.489Z,6.20
2023-01-13T01:41:30.872Z,6.30
2023-01-13T01:44:43.143Z,6.30
2023-01-13T01:47:18.883Z,6.20
2023-01-13T01:49:47.802Z,6.00
2023-01-13T01:52:25.760Z,5.90
2023-01-13T01:54:59.207Z,5.90
2023-01-13T01:57:40.317Z,6.00
2023-01-13T02:00:11.362Z,6.00
2023-01-13T02:02:44.455Z,5.90
2023-01-13T02:05:13.327Z,5.90
2023-01-13T02:07:43.666Z,5.80
2023-01-13T02:10:14.842Z,5.90
2023-01-13T02:12:45.521Z,5.80
2023-01-13T02:15:32.240Z,5.90
2023-01-13T02:18:33.884Z,5.90
2023-01-13T02:21:14.070Z,5.90
2023-01-13T02:24:13.348Z,5.90
2023-01-13T02:27:15.581Z,5.80
2023-01-13T02:30:36.430Z,5.70
2023-01-13T02:33:35.116Z,5.70
2023-01-13T02:36:21.305Z,5.60
2023-01-13T02:38:59.689Z,5.50
2023-01-13T02:42:18.953Z,5.60
2023-01-13T02:44:52.133Z,5.60
2023-01-13T02:47:26.762Z,5.70
2023-01-13T02:50:05.219Z,5.70
2023-01-13T02:52:51.314Z,5.70
2023-01-13T02:55:36.070Z,5.70
2023-01-13T02:58:06.757Z,5.70
2023-01-13T03:00:37.051Z,5.70
2023-01-13T03:03:05.347Z,5.70
2023-01-13T03:05:34.462Z,5.50
2023-01-13T03:08:05.739Z,5.50
2023-01-13T03:11:04.439Z,5.70
2023-01-13T03:13:46.690Z,5.50
2023-01-13T03:16:34.718Z,5.50
2023-01-13T03:19:11.559Z,5.60
2023-01-13T03:21:43.899Z,5.60
2023-01-13T03:24:23.249Z,5.60
2023-01-13T03:27:34.872Z,5.40
2023-01-13T03:30:29.734Z,5.30
2023-01-13T03:33:03.181Z,5.50
2023-01-13T03:35:40.725Z,5.50
2023-01-13T03:38:24.475Z,5.30
2023-01-13T03:40:58.586Z,5.20
2023-01-13T03:44:09.469Z,5.20
2023-01-13T03:46:48.639Z,5.20
2023-01-13T03:49:22.511Z,5.40
2023-01-13T03:51:56.594Z,5.50
2023-01-13T03:54:28.505Z,5.50
2023-01-13T03:57:04.987Z,5.40
2023-01-13T03:59:38.190Z,5.30
2023-01-13T04:02:28.243Z,5.30
2023-01-13T04:05:03.288Z,5.30
2023-01-13T04:07:52.246Z,5.30
2023-01-13T04:10:28.240Z,5.50
2023-01-13T04:13:05.614Z,5.40
2023-01-13T04:15:37.778Z,5.30
2023-01-13T04:18:28.768Z,5.20
2023-01-13T04:21:02.048Z,5.40
2023-01-13T04:23:30.405Z,5.50
2023-01-13T04:25:58.922Z,5.50
2023-01-13T04:28:27.882Z,5.40
2023-01-13T04:30:56.078Z,5.40
2023-01-13T04:33:24.262Z,5.30
2023-01-13T04:35:53.309Z,5.40
2023-01-13T04:38:23.572Z,5.50
2023-01-13T04:40:51.522Z,5.50
2023-01-13T04:43:19.820Z,5.30
2023-01-13T04:45:48.222Z,5.50
2023-01-13T04:48:16.379Z,5.50
2023-01-13T04:50:44.662Z,5.30
2023-01-13T04:53:12.837Z,5.10
2023-01-13T04:55:41.012Z,5.20
2023-01-13T04:58:10.855Z,5.30
2023-01-13T05:00:39.022Z,5.20
2023-01-13T05:03:07.199Z,5.20
2023-01-13T05:05:35.403Z,5.30
2023-01-13T05:08:03.519Z,5.50
2023-01-13T05:10:31.759Z,5.50
2023-01-13T05:13:18.262Z,5.30
2023-01-13T05:16:06.706Z,5.20
2023-01-13T05:18:35.138Z,5.20
2023-01-13T05:21:03.374Z,5.00
2023-01-13T05:23:49.745Z,5.20
2023-01-13T05:26:17.823Z,5.40
2023-01-13T05:28:45.956Z,5.40
2023-01-13T05:31:15.256Z,5.20
2023-01-13T05:33:43.472Z,5.10
2023-01-13T05:36:11.525Z,5.10
2023-01-13T05:38:39.504Z,5.10
2023-01-13T05:41:26.883Z,5.20
2023-01-13T05:43:55.538Z,5.40
2023-01-13T05:46:24.202Z,5.40
2023-01-13T05:48:52.406Z,5.50
2023-01-13T05:51:26.428Z,5.50
2023-01-13T05:53:54.459Z,5.40
2023-01-13T05:56:22.315Z,5.40
2023-01-13T05:58:50.404Z,5.30
2023-01-13T06:01:18.620Z,5.30
2023-01-13T06:03:46.669Z,5.30
2023-01-13T06:06:14.908Z,5.30
2023-01-13T06:08:43.202Z,5.30
2023-01-13T06:11:11.360Z,5.20
2023-01-13T06:13:39.318Z,5.20
2023-01-13T06:16:07.528Z,5.20
2023-01-13T06:18:36.502Z,5.30
2023-01-13T06:21:05.121Z,5.20
2023-01-13T06:23:35.644Z,5.10
2023-01-13T06:26:17.763Z,5.10
2023-01-13T06:28:46.303Z,5.10
2023-01-13T06:31:14.760Z,5.00
2023-01-13T06:33:54.127Z,5.10
2023-01-13T06:36:29.852Z,5.10
2023-01-13T06:39:01.222Z,5.20
2023-01-13T06:41:49.190Z,5.40
2023-01-13T06:44:18.526Z,5.40
2023-01-13T06:46:48.011Z,5.30
2023-01-13T06:49:16.228Z,5.20
2023-01-13T06:51:44.331Z,5.30
2023-01-13T06:54:12.414Z,5.30
2023-01-13T06:56:40.746Z,5.30
2023-01-13T06:59:09.174Z,5.40
2023-01-13T07:01:37.400Z,5.40
2023-01-13T07:04:05.986Z,5.50
2023-01-13T07:06:36.836Z,5.40
2023-01-13T07:09:06.783Z,5.80
2023-01-13T07:11:35.207Z,5.70
2023-01-13T07:14:21.804Z,5.80
2023-01-13T07:16:49.801Z,5.80
2023-01-13T07:19:23.638Z,5.60
2023-01-13T07:21:52.457Z,5.60
2023-01-13T07:24:21.109Z,5.50
2023-01-13T07:26:49.050Z,5.60
2023-01-13T07:29:17.204Z,5.60
2023-01-13T07:31:46.786Z,5.70
2023-01-13T07:34:16.657Z,5.80
2023-01-13T07:36:44.684Z,5.80
2023-01-13T07:39:12.730Z,5.70
2023-01-13T07:41:59.132Z,5.70
2023-01-13T07:44:28.006Z,5.80
2023-01-13T07:46:56.028Z,5.70
2023-01-13T07:49:24.357Z,5.60
2023-01-13T07:51:52.340Z,5.60
2023-01-13T07:54:25.527Z,5.60
2023-01-13T07:57:00.220Z,5.50
2023-01-13T07:59:28.710Z,5.60
2023-01-13T08:01:57.411Z,5.60
2023-01-13T08:04:25.427Z,5.60
2023-01-13T08:06:53.443Z,5.60
2023-01-13T08:09:21.824Z,5.60
2023-01-13T08:12:10.372Z,6.00
2023-01-13T08:14:38.747Z,6.10
2023-01-13T08:17:09.033Z,6.00
2023-01-13T08:19:37.177Z,5.80
2023-01-13T08:22:05.415Z,5.80
2023-01-13T08:24:33.697Z,5.80
2023-01-13T08:27:02.001Z,5.80
2023-01-13T08:29:30.696Z,5.90
2023-01-13T08:31:59.121Z,6.00
2023-01-13T08:34:27.384Z,6.00
2023-01-13T08:36:55.813Z,6.00
2023-01-13T08:39:25.536Z,6.00
2023-01-13T08:41:56.625Z,6.00
2023-01-13T08:44:29.871Z,6.10
2023-01-13T08:46:58.280Z,6.40
2023-01-13T08:49:26.923Z,6.50
2023-01-13T08:51:55.497Z,6.60
2023-01-13T08:54:23.746Z,6.60
2023-01-13T08:56:52.297Z,6.70
2023-01-13T08:59:21.539Z,6.60
2023-01-13T09:01:49.877Z,6.60
2023-01-13T09:04:22.020Z,6.60
2023-01-13T09:06:51.200Z,6.70
2023-01-13T09:09:19.459Z,6.70
2023-01-13T09:12:08.868Z,6.80
2023-01-13T09:14:38.986Z,6.80
2023-01-13T09:17:08.190Z,6.80
2023-01-13T09:19:36.869Z,7.00
2023-01-13T09:22:05.541Z,6.90
2023-01-13T09:24:33.713Z,7.00
2023-01-13T09:27:01.929Z,7.00
2023-01-13T09:29:30.219Z,7.10
2023-01-13T09:31:58.515Z,7.20
2023-01-13T09:34:45.425Z,7.10
2023-01-13T09:37:13.581Z,7.10
2023-01-13T09:39:41.975Z,7.20
2023-01-13T09:42:42.616Z,7.20
2023-01-13T09:45:37.100Z,7.30
2023-01-13T09:48:16.716Z,7.40
2023-01-13T09:50:54.204Z,7.40
2023-01-13T09:53:29.199Z,7.50
2023-01-13T09:55:57.452Z,7.70
2023-01-13T09:58:25.772Z,7.80
2023-01-13T10:01:15.522Z,7.70
2023-01-13T10:03:43.621Z,7.60
2023-01-13T10:06:15.977Z,7.60
2023-01-13T10:08:46.059Z,7.60
2023-01-13T10:11:37.024Z,7.70
2023-01-13T10:14:31.477Z,7.80
2023-01-13T10:17:24.296Z,8.00
2023-01-13T10:20:03.824Z,8.10
2023-01-13T10:22:43.894Z,7.90
2023-01-13T10:25:39.825Z,7.90
2023-01-13T10:28:14.582Z,8.00
2023-01-13T10:30:44.895Z,8.20
2023-01-13T10:33:28.919Z,8.20
2023-01-13T10:35:59.937Z,8.00
2023-01-13T10:38:40.723Z,7.80
2023-01-13T10:41:26.528Z,7.70
2023-01-13T10:44:18.366Z,7.90
2023-01-13T10:46:55.679Z,8.10
2023-01-13T10:49:34.419Z,8.10
2023-01-13T10:52:04.759Z,8.20
2023-01-13T10:54:33.249Z,8.10
2023-01-13T10:57:25.332Z,8.20
2023-01-13T10:59:53.674Z,8.20
2023-01-13T11:02:33.551Z,8.20
2023-01-13T11:05:25.767Z,8.20
2023-01-13T11:07:56.518Z,8.10
2023-01-13T11:10:31.456Z,8.10
2023-01-13T11:13:19.864Z,8.10
2023-01-13T11:16:01.202Z,8.10
2023-01-13T11:19:12.376Z,8.20
2023-01-13T11:22:14.003Z,8.10
2023-01-13T11:24:54.434Z,8.10
2023-01-13T11:27:37.493Z,8.10
2023-01-13T11:30:14.344Z,8.10
2023-01-13T11:33:15.927Z,8.30
2023-01-13T11:35:58.973Z,8.30
2023-01-13T11:38:48.578Z,8.30
2023-01-13T11:41:25.663Z,8.40
2023-01-13T11:44:15.173Z,8.40
2023-01-13T11:46:43.506Z,8.40
2023-01-13T11:49:26.517Z,8.50
2023-01-13T11:52:28.896Z,8.40
2023-01-13T11:55:30.777Z,8.40
2023-01-13T11:58:49.498Z,8.20
2023-01-13T12:01:37.629Z,8.20
2023-01-13T12:04:05.923Z,8.50
2023-01-13T12:06:41.007Z,8.40
2023-01-13T12:09:39.476Z,8.50
2023-01-13T12:12:43.619Z,8.70
2023-01-13T12:15:48.794Z,8.60
2023-01-13T12:18:43.298Z,8.50
2023-01-13T12:21:32.045Z,8.40
2023-01-13T12:24:34.500Z,8.50
2023-01-13T12:27:09.653Z,8.70
2023-01-13T12:29:38.968Z,8.50
2023-01-13T12:32:14.792Z,8.50
2023-01-13T12:35:06.609Z,8.60
2023-01-13T12:37:53.484Z,8.60
2023-01-13T12:40:51.895Z,8.80
2023-01-13T12:43:41.095Z,9.00
2023-01-13T12:46:23.890Z,8.90
2023-01-13T12:48:56.742Z,8.90
2023-01-13T12:51:28.033Z,8.80
2023-01-13T12:53:56.679Z,8.70
2023-01-13T12:56:38.956Z,8.80
2023-01-13T12:59:19.310Z,8.70
2023-01-13T13:01:51.993Z,8.80
2023-01-13T13:04:44.081Z,8.90
2023-01-13T13:07:17.602Z,9.00
2023-01-13T13:09:53.397Z,9.10
2023-01-13T13:13:01.159Z,9.40
2023-01-13T13:15:37.221Z,9.70
2023-01-13T13:18:24.571Z,9.70
2023-01-13T13:21:05.021Z,9.80
2023-01-13T13:24:06.742Z,10.00
2023-01-13T13:26:45.970Z,10.00
2023-01-13T13:29:41.463Z,9.70
2023-01-13T13:32:30.409Z,9.80
2023-01-13T13:35:21.596Z,9.60
2023-01-13T13:38:20.273Z,9.60
2023-01-13T13:41:07.460Z,9.60
2023-01-13T13:44:01.150Z,9.70
2023-01-13T13:46:48.096Z,9.80
2023-01-13T13:49:20.258Z,9.70
2023-01-13T13:52:00.593Z,9.70
2023-01-13T13:54:28.851Z,9.80
2023-01-13T13:56:58.894Z,9.70
2023-01-13T13:59:34.126Z,9.70
2023-01-13T14:02:04.230Z,9.80
2023-01-13T14:04:36.509Z,9.90
2023-01-13T14:07:21.198Z,10.00
2023-01-13T14:09:54.421Z,10.10
2023-01-13T14:12:26.349Z,10.00
2023-01-13T14:14:57.867Z,9.80
2023-01-13T14:17:27.318Z,9.90
2023-01-13T14:20:08.171Z,10.10
2023-01-13T14:22:36.562Z,10.30
2023-01-13T14:25:29.028Z,10.30
2023-01-13T14:28:01.122Z,10.20
2023-01-13T14:30:29.642Z,10.10
2023-01-13T14:32:58.763Z,10.10
2023-01-13T14:35:27.735Z,10.20
2023-01-13T14:38:03.300Z,10.20
2023-01-13T14:40:36.516Z,10.10
2023-01-13T14:43:18.519Z,10.00
2023-01-13T14:46:02.955Z,10.00
2023-01-13T14:48:36.398Z,10.10
2023-01-13T14:51:11.012Z,10.20
2023-01-13T14:53:43.977Z,10.10
2023-01-13T14:56:43.182Z,9.90
2023-01-13T14:59:34.381Z,9.90
2023-01-13T15:02:24.639Z,9.90
2023-01-13T15:04:54.485Z,9.80
2023-01-13T15:07:27.708Z,9.80
2023-01-13T15:10:01.504Z,9.80
2023-01-13T15:12:36.858Z,9.80
2023-01-13T15:15:29.023Z,9.60
2023-01-13T15:18:12.204Z,9.50
2023-01-13T15:20:41.062Z,9.40
2023-01-13T15:23:11.969Z,9.40
2023-01-13T15:25:43.867Z,9.40
2023-01-13T15:28:19.327Z,9.50
2023-01-13T15:30:48.835Z,9.40
2023-01-13T15:33:18.137Z,9.40
2023-01-13T15:35:48.783Z,9.40
2023-01-13T15:38:20.534Z,9.30
2023-01-13T15:40:58.940Z,9.20
2023-01-13T15:43:45.195Z,9.10
2023-01-13T15:46:33.331Z,8.90
2023-01-13T15:49:08.931Z,8.70
2023-01-13T15:51:37.195Z,8.60
2023-01-13T15:54:05.362Z,8.50
2023-01-13T15:56:36.951Z,8.40
2023-01-13T15:59:10.869Z,8.40
2023-01-13T16:01:38.705Z,8.50
2023-01-13T16:04:06.575Z,8.40
2023-01-13T16:06:36.390Z,8.30
2023-01-13T16:09:05.636Z,8.20
2023-01-13T16:11:33.432Z,8.10
2023-01-13T16:14:01.241Z,8.10
2023-01-13T16:16:29.995Z,8.00
2023-01-13T16:18:57.695Z,7.90
2023-01-13T16:21:25.749Z,7.80
2023-01-13T16:23:53.536Z,7.90
2023-01-13T16:26:25.557Z,7.90
2023-01-13T16:28:55.808Z,7.80
2023-01-13T16:31:24.132Z,7.70
2023-01-13T16:33:52.632Z,7.60
2023-01-13T16:36:21.514Z,7.50
2023-01-13T16:38:51.404Z,7.40
2023-01-13T16:41:20.610Z,7.40
2023-01-13T16:43:48.971Z,7.50
2023-01-13T16:46:21.428Z,7.50
2023-01-13T16:48:50.416Z,7.50
2023-01-13T16:51:18.260Z,7.40
2023-01-13T16:53:46.311Z,7.40
2023-01-13T16:56:25.123Z,7.40
2023-01-13T16:58:55.221Z,7.40
2023-01-13T17:01:27.180Z,7.50
2023-01-13T17:03:56.068Z,7.40
2023-01-13T17:06:37.460Z,7.50
2023-01-13T17:09:17.669Z,7.60
2023-01-13T17:11:45.342Z,7.70
2023-01-13T17:14:18.626Z,7.70
2023-01-13T17:16:47.741Z,7.80
2023-01-13T17:19:15.601Z,7.70
2023-01-13T17:21:43.846Z,7.60
2023-01-13T17:24:12.595Z,7.70
2023-01-13T17:26:44.273Z,7.60
2023-01-13T17:29:22.159Z,7.50
2023-01-13T17:31:51.449Z,7.30
2023-01-13T17:34:21.372Z,7.20
2023-01-13T17:36:49.596Z,7.10
2023-01-13T17:39:26.245Z,7.00
2023-01-13T17:41:56.329Z,7.10
2023-01-13T17:44:24.316Z,7.00
2023-01-13T17:46:52.020Z,6.90
2023-01-13T17:49:21.966Z,6.90
2023-01-13T17:51:51.347Z,6.80
2023-01-13T17:54:19.614Z,6.80
2023-01-13T17:56:47.860Z,6.90
2023-01-13T17:59:18.067Z,6.90
2023-01-13T18:01:46.629Z,6.90
2023-01-13T18:04:18.447Z,7.00
2023-01-13T18:06:47.229Z,6.90
2023-01-13T18:09:15.567Z,6.90
2023-01-13T18:11:44.501Z,6.90
2023-01-13T18:14:13.080Z,6.90
2023-01-13T18:16:40.951Z,6.80
2023-01-13T18:19:28.324Z,6.80
2023-01-13T18:22:14.473Z,6.70
2023-01-13T18:25:01.198Z,6.70
2023-01-13T18:27:36.476Z,6.90
2023-01-13T18:30:06.803Z,7.00
2023-01-13T18:32:35.051Z,7.00
2023-01-13T18:35:07.119Z,6.90
2023-01-13T18:37:40.582Z,6.90
2023-01-13T18:40:11.903Z,6.90
2023-01-13T18:42:52.371Z,6.70
2023-01-13T18:45:32.113Z,6.60
2023-01-13T18:48:02.307Z,6.70
2023-01-13T18:50:30.489Z,6.80
2023-01-13T18:52:58.602Z,6.80
2023-01-13T18:55:28.832Z,6.80
2023-01-13T18:57:57.619Z,6.90
2023-01-13T19:00:27.026Z,6.90
2023-01-13T19:05:36.109Z,6.50
2023-01-13T19:08:04.737Z,6.40
2023-01-13T19:10:32.864Z,6.40
2023-01-13T19:13:01.897Z,6.30
2023-01-13T19:15:30.083Z,6.50
2023-01-13T19:17:57.972Z,6.60
2023-01-13T19:20:25.798Z,6.60
2023-01-13T19:22:54.681Z,6.60
2023-01-13T19:25:22.983Z,6.50
2023-01-13T19:27:50.790Z,6.40
2023-01-13T19:30:18.745Z,6.20
2023-01-13T19:32:46.426Z,6.20
2023-01-13T19:35:17.735Z,6.20
2023-01-13T19:37:45.895Z,6.20
2023-01-13T19:40:14.010Z,6.10
2023-01-13T19:43:04.774Z,6.00
2023-01-13T19:45:35.374Z,6.00
2023-01-13T19:48:05.579Z,6.00
2023-01-13T19:50:38.791Z,5.90
2023-01-13T19:53:07.957Z,5.80
2023-01-13T19:55:35.927Z,5.80
2023-01-13T19:58:04.184Z,5.80
2023-01-13T20:00:32.727Z,5.70
2023-01-13T20:03:03.686Z,5.60
2023-01-13T20:05:31.633Z,5.70
2023-01-13T20:07:59.424Z,5.80
2023-01-13T20:10:30.827Z,6.10
2023-01-13T20:12:59.080Z,5.90
2023-01-13T20:15:27.175Z,6.00
2023-01-13T20:17:55.502Z,5.90
2023-01-13T20:20:23.434Z,6.00
2023-01-13T20:22:51.260Z,6.00
2023-01-13T20:25:19.617Z,5.90
2023-01-13T20:27:48.226Z,5.70
2023-01-13T20:30:16.530Z,5.70
2023-01-13T20:32:45.198Z,5.70
2023-01-13T20:35:13.301Z,5.90
2023-01-13T20:37:42.408Z,6.00
2023-01-13T20:40:14.132Z,5.90
2023-01-13T20:42:47.853Z,5.90
2023-01-13T20:45:19.940Z,5.70
2023-01-13T20:47:47.930Z,5.80
2023-01-13T20:50:16.983Z,6.00
2023-01-13T20:52:45.599Z,6.00
2023-01-13T20:55:14.544Z,6.00
2023-01-13T20:57:42.431Z,5.90
2023-01-13T21:00:11.044Z,5.90
2023-01-13T21:02:40.012Z,5.80
2023-01-13T21:05:08.759Z,5.80
2023-01-13T21:07:36.494Z,5.80
2023-01-13T21:10:04.915Z,5.60
2023-01-13T21:12:51.250Z,5.50
2023-01-13T21:15:20.404Z,5.20
2023-01-13T21:18:08.972Z,5.20
2023-01-13T21:20:39.054Z,5.20
2023-01-13T21:23:07.657Z,5.10
2023-01-13T21:25:37.474Z,5.00
2023-01-13T21:28:11.207Z,5.20
2023-01-13T21:30:39.454Z,5.30
2023-01-13T21:33:07.236Z,5.30
2023-01-13T21:35:38.641Z,5.40
2023-01-13T21:38:07.793Z,5.40
2023-01-13T21:40:35.559Z,5.40
2023-01-13T21:43:21.653Z,5.30
2023-01-13T21:46:08.192Z,5.20
2023-01-13T21:48:36.037Z,5.10
2023-01-13T21:51:03.910Z,5.20
2023-01-13T21:53:31.706Z,5.20
2023-01-13T21:55:59.373Z,5.20
2023-01-13T21:58:27.093Z,5.20
2023-01-13T22:00:55.213Z,5.20
2023-01-13T22:03:23.096Z,5.10
2023-01-13T22:05:55.981Z,5.00
2023-01-13T22:08:23.828Z,5.00
2023-01-13T22:10:58.138Z,4.90
2023-01-13T22:13:47.586Z,5.10
2023-01-13T22:16:16.184Z,5.30
2023-01-13T22:18:44.004Z,5.30
2023-01-13T22:21:12.058Z,5.10
2023-01-13T22:23:39.908Z,5.00
2023-01-13T22:26:08.493Z,5.10
2023-01-13T22:28:43.800Z,4.90
2023-01-13T22:31:14.441Z,4.70
2023-01-13T22:33:42.692Z,4.60
2023-01-13T22:36:10.997Z,4.50
2023-01-13T22:38:39.078Z,4.50
2023-01-13T22:41:09.328Z,4.40
2023-01-13T22:43:38.259Z,4.50
2023-01-13T22:46:09.735Z,4.50
2023-01-13T22:48:38.453Z,4.60
2023-01-13T22:51:08.467Z,4.60
2023-01-13T22:53:37.426Z,4.50
2023-01-13T22:56:05.529Z,4.40
2023-01-13T22:58:33.858Z,4.50
2023-01-13T23:01:11.809Z,4.50
2023-01-13T23:03:40.294Z,4.50
2023-01-13T23:06:08.498Z,4.30
2023-01-13T23:08:36.416Z,4.30
2023-01-13T23:11:09.931Z,4.00
2023-01-13T23:13:39.498Z,4.00
2023-01-13T23:16:10.800Z,4.10
2023-01-13T23:18:39.517Z,3.90
2023-01-13T23:21:12.021Z,3.80
2023-01-13T23:23:40.266Z,3.70
2023-01-13T23:26:08.613Z,3.60
2023-01-13T23:28:36.874Z,3.70
2023-01-13T23:31:15.425Z,3.70
2023-01-13T23:33:44.150Z,4.00
2023-01-13T23:36:23.655Z,4.10
2023-01-13T23:38:52.847Z,4.20
2023-01-13T23:41:23.865Z,4.30
2023-01-13T23:44:01.347Z,4.30
2023-01-13T23:46:31.531Z,4.30
2023-01-13T23:48:59.648Z,4.30
2023-01-13T23:51:30.253Z,4.30
2023-01-13T23:53:59.422Z,4.20
2023-01-13T23:56:30.813Z,4.10
2023-01-13T23:58:58.980Z,3.80
